sensor_id;sensor_type;location;lat;lon;timestamp;P1;durP1;ratioP1;P2;durP2;ratioP2
1625;SDS011;806;48.770;9.156;2024-02-26T00:01:50;0.65;;;0.30;;
1625;SDS011;806;48.770;9.156;2024-02-26T00:04:17;0.80;;;0.40;;
1625;SDS011;806;48.770;9.156;2024-02-26T00:06:45;0.60;;;0.40;;
1625;SDS011;806;48.770;9.156;2024-02-26T00:09:13;0.70;;;0.40;;
1625;SDS011;806;48.770;9.156;2024-02-26T00:11:40;0.70;;;0.40;;
1625;SDS011;806;48.770;9.156;2024-02-26T00:14:06;0.60;;;0.30;;
1625;SDS011;806;48.770;9.156;2024-02-26T00:16:33;0.60;;;0.40;;
1625;SDS011;806;48.770;9.156;2024-02-26T00:19:00;0.70;;;0.40;;
1625;SDS011;806;48.770;9.156;2024-02-26T00:21:27;0.70;;;0.40;;
1625;SDS011;806;48.770;9.156;2024-02-26T00:23:56;0.70;;;0.30;;
1625;SDS011;806;48.770;9.156;2024-02-26T00:26:22;0.70;;;0.30;;
1625;SDS011;806;48.770;9.156;2024-02-26T00:28:49;0.70;;;0.40;;
1625;SDS011;806;48.770;9.156;2024-02-26T00:31:16;0.88;;;0.40;;
1625;SDS011;806;48.770;9.156;2024-02-26T00:33:43;0.80;;;0.50;;
1625;SDS011;806;48.770;9.156;2024-02-26T00:36:10;1.00;;;0.30;;
1625;SDS011;806;48.770;9.156;2024-02-26T00:38:37;0.65;;;0.40;;
1625;SDS011;806;48.770;9.156;2024-02-26T00:41:05;0.70;;;0.30;;
1625;SDS011;806;48.770;9.156;2024-02-26T00:43:32;1.30;;;0.40;;
1625;SDS011;806;48.770;9.156;2024-02-26T00:45:59;1.00;;;0.30;;
1625;SDS011;806;48.770;9.156;2024-02-26T00:48:27;1.30;;;0.40;;
1625;SDS011;806;48.770;9.156;2024-02-26T00:50:54;0.80;;;0.40;;
1625;SDS011;806;48.770;9.156;2024-02-26T00:53:21;0.77;;;0.40;;
1625;SDS011;806;48.770;9.156;2024-02-26T00:55:47;0.80;;;0.40;;
1625;SDS011;806;48.770;9.156;2024-02-26T00:58:16;0.60;;;0.35;;
1625;SDS011;806;48.770;9.156;2024-02-26T01:00:44;0.60;;;0.40;;
1625;SDS011;806;48.770;9.156;2024-02-26T01:03:10;0.80;;;0.40;;
1625;SDS011;806;48.770;9.156;2024-02-26T01:05:37;0.80;;;0.40;;
1625;SDS011;806;48.770;9.156;2024-02-26T01:08:04;1.17;;;0.38;;
1625;SDS011;806;48.770;9.156;2024-02-26T01:10:32;0.60;;;0.30;;
1625;SDS011;806;48.770;9.156;2024-02-26T01:12:59;0.68;;;0.40;;
1625;SDS011;806;48.770;9.156;2024-02-26T01:15:27;1.20;;;0.30;;
1625;SDS011;806;48.770;9.156;2024-02-26T01:17:54;1.50;;;0.40;;
1625;SDS011;806;48.770;9.156;2024-02-26T01:20:21;0.60;;;0.40;;
1625;SDS011;806;48.770;9.156;2024-02-26T01:22:48;0.50;;;0.30;;
1625;SDS011;806;48.770;9.156;2024-02-26T01:25:15;0.90;;;0.30;;
1625;SDS011;806;48.770;9.156;2024-02-26T01:27:42;0.70;;;0.40;;
1625;SDS011;806;48.770;9.156;2024-02-26T01:30:09;0.60;;;0.40;;
1625;SDS011;806;48.770;9.156;2024-02-26T01:32:38;0.70;;;0.40;;
1625;SDS011;806;48.770;9.156;2024-02-26T01:35:05;0.60;;;0.30;;
1625;SDS011;806;48.770;9.156;2024-02-26T01:37:35;0.50;;;0.30;;
1625;SDS011;806;48.770;9.156;2024-02-26T01:40:02;0.60;;;0.30;;
1625;SDS011;806;48.770;9.156;2024-02-26T01:42:32;0.60;;;0.30;;
1625;SDS011;806;48.770;9.156;2024-02-26T01:44:59;0.70;;;0.30;;
1625;SDS011;806;48.770;9.156;2024-02-26T01:47:26;0.70;;;0.40;;
1625;SDS011;806;48.770;9.156;2024-02-26T01:49:55;0.88;;;0.30;;
1625;SDS011;806;48.770;9.156;2024-02-26T01:52:22;0.90;;;0.40;;
1625;SDS011;806;48.770;9.156;2024-02-26T01:54:49;0.75;;;0.40;;
1625;SDS011;806;48.770;9.156;2024-02-26T01:57:17;0.60;;;0.40;;
1625;SDS011;806;48.770;9.156;2024-02-26T01:59:44;0.50;;;0.30;;
1625;SDS011;806;48.770;9.156;2024-02-26T02:02:11;0.68;;;0.30;;
1625;SDS011;806;48.770;9.156;2024-02-26T02:04:39;0.60;;;0.35;;
1625;SDS011;806;48.770;9.156;2024-02-26T02:07:09;1.02;;;0.30;;
1625;SDS011;806;48.770;9.156;2024-02-26T02:09:36;0.50;;;0.30;;
1625;SDS011;806;48.770;9.156;2024-02-26T02:12:04;0.63;;;0.35;;
1625;SDS011;806;48.770;9.156;2024-02-26T02:14:32;0.50;;;0.30;;
1625;SDS011;806;48.770;9.156;2024-02-26T02:16:59;0.80;;;0.40;;
1625;SDS011;806;48.770;9.156;2024-02-26T02:19:25;0.70;;;0.40;;
1625;SDS011;806;48.770;9.156;2024-02-26T02:21:54;1.10;;;0.40;;
1625;SDS011;806;48.770;9.156;2024-02-26T02:24:21;0.70;;;0.40;;
1625;SDS011;806;48.770;9.156;2024-02-26T02:26:47;0.63;;;0.32;;
1625;SDS011;806;48.770;9.156;2024-02-26T02:29:14;2.40;;;0.30;;
1625;SDS011;806;48.770;9.156;2024-02-26T02:31:41;0.60;;;0.40;;
1625;SDS011;806;48.770;9.156;2024-02-26T02:34:09;0.60;;;0.30;;
1625;SDS011;806;48.770;9.156;2024-02-26T02:36:47;0.70;;;0.30;;
1625;SDS011;806;48.770;9.156;2024-02-26T02:39:16;0.77;;;0.30;;
1625;SDS011;806;48.770;9.156;2024-02-26T02:41:43;0.60;;;0.30;;
1625;SDS011;806;48.770;9.156;2024-02-26T02:44:10;0.50;;;0.20;;
1625;SDS011;806;48.770;9.156;2024-02-26T02:46:37;1.00;;;0.30;;
1625;SDS011;806;48.770;9.156;2024-02-26T02:49:07;0.50;;;0.30;;
1625;SDS011;806;48.770;9.156;2024-02-26T02:51:35;0.60;;;0.30;;
1625;SDS011;806;48.770;9.156;2024-02-26T02:54:02;0.60;;;0.30;;
1625;SDS011;806;48.770;9.156;2024-02-26T02:56:31;0.70;;;0.30;;
1625;SDS011;806;48.770;9.156;2024-02-26T02:58:58;0.68;;;0.30;;
1625;SDS011;806;48.770;9.156;2024-02-26T03:01:24;0.40;;;0.20;;
1625;SDS011;806;48.770;9.156;2024-02-26T03:03:51;0.50;;;0.20;;
1625;SDS011;806;48.770;9.156;2024-02-26T03:06:18;0.50;;;0.20;;
1625;SDS011;806;48.770;9.156;2024-02-26T03:08:46;0.60;;;0.25;;
1625;SDS011;806;48.770;9.156;2024-02-26T03:11:13;0.50;;;0.20;;
1625;SDS011;806;48.770;9.156;2024-02-26T03:13:41;0.43;;;0.20;;
1625;SDS011;806;48.770;9.156;2024-02-26T03:16:08;0.40;;;0.20;;
1625;SDS011;806;48.770;9.156;2024-02-26T03:18:35;0.70;;;0.30;;
1625;SDS011;806;48.770;9.156;2024-02-26T03:21:04;0.60;;;0.20;;
1625;SDS011;806;48.770;9.156;2024-02-26T03:23:31;0.50;;;0.20;;
1625;SDS011;806;48.770;9.156;2024-02-26T03:26:01;0.50;;;0.20;;
1625;SDS011;806;48.770;9.156;2024-02-26T03:28:28;0.52;;;0.20;;
1625;SDS011;806;48.770;9.156;2024-02-26T03:30:57;0.65;;;0.20;;
1625;SDS011;806;48.770;9.156;2024-02-26T03:33:24;0.50;;;0.30;;
1625;SDS011;806;48.770;9.156;2024-02-26T03:35:51;0.68;;;0.20;;
1625;SDS011;806;48.770;9.156;2024-02-26T03:38:18;0.50;;;0.20;;
1625;SDS011;806;48.770;9.156;2024-02-26T03:40:45;0.40;;;0.20;;
1625;SDS011;806;48.770;9.156;2024-02-26T03:43:11;0.40;;;0.20;;
1625;SDS011;806;48.770;9.156;2024-02-26T03:45:38;0.50;;;0.20;;
1625;SDS011;806;48.770;9.156;2024-02-26T03:48:07;0.52;;;0.30;;
1625;SDS011;806;48.770;9.156;2024-02-26T03:50:34;0.40;;;0.20;;
1625;SDS011;806;48.770;9.156;2024-02-26T03:53:01;0.50;;;0.30;;
1625;SDS011;806;48.770;9.156;2024-02-26T03:55:27;0.50;;;0.22;;
1625;SDS011;806;48.770;9.156;2024-02-26T03:57:55;0.70;;;0.22;;
1625;SDS011;806;48.770;9.156;2024-02-26T04:00:21;0.60;;;0.30;;
1625;SDS011;806;48.770;9.156;2024-02-26T04:02:48;0.50;;;0.30;;
1625;SDS011;806;48.770;9.156;2024-02-26T04:05:17;0.90;;;0.30;;
1625;SDS011;806;48.770;9.156;2024-02-26T04:07:44;0.50;;;0.30;;
1625;SDS011;806;48.770;9.156;2024-02-26T04:10:11;0.70;;;0.30;;
1625;SDS011;806;48.770;9.156;2024-02-26T04:12:38;0.75;;;0.47;;
1625;SDS011;806;48.770;9.156;2024-02-26T04:15:06;1.13;;;0.30;;
1625;SDS011;806;48.770;9.156;2024-02-26T04:17:34;0.50;;;0.30;;
1625;SDS011;806;48.770;9.156;2024-02-26T04:20:02;0.60;;;0.30;;
1625;SDS011;806;48.770;9.156;2024-02-26T04:22:31;0.70;;;0.40;;
1625;SDS011;806;48.770;9.156;2024-02-26T04:24:58;0.60;;;0.40;;
1625;SDS011;806;48.770;9.156;2024-02-26T04:27:25;0.60;;;0.40;;
1625;SDS011;806;48.770;9.156;2024-02-26T04:29:52;0.60;;;0.30;;
1625;SDS011;806;48.770;9.156;2024-02-26T04:32:19;0.70;;;0.40;;
1625;SDS011;806;48.770;9.156;2024-02-26T04:34:46;0.82;;;0.40;;
1625;SDS011;806;48.770;9.156;2024-02-26T04:37:13;0.80;;;0.50;;
1625;SDS011;806;48.770;9.156;2024-02-26T04:39:41;0.70;;;0.50;;
1625;SDS011;806;48.770;9.156;2024-02-26T04:42:08;0.83;;;0.40;;
1625;SDS011;806;48.770;9.156;2024-02-26T04:44:35;0.80;;;0.40;;
1625;SDS011;806;48.770;9.156;2024-02-26T04:47:02;0.70;;;0.40;;
1625;SDS011;806;48.770;9.156;2024-02-26T04:49:29;0.80;;;0.40;;
1625;SDS011;806;48.770;9.156;2024-02-26T04:51:56;0.90;;;0.50;;
1625;SDS011;806;48.770;9.156;2024-02-26T04:54:23;0.65;;;0.40;;
1625;SDS011;806;48.770;9.156;2024-02-26T04:56:51;0.65;;;0.40;;
1625;SDS011;806;48.770;9.156;2024-02-26T04:59:18;0.90;;;0.35;;
1625;SDS011;806;48.770;9.156;2024-02-26T05:01:45;0.60;;;0.30;;
1625;SDS011;806;48.770;9.156;2024-02-26T05:04:12;0.70;;;0.40;;
1625;SDS011;806;48.770;9.156;2024-02-26T05:06:38;0.60;;;0.30;;
1625;SDS011;806;48.770;9.156;2024-02-26T05:09:05;1.00;;;0.30;;
1625;SDS011;806;48.770;9.156;2024-02-26T05:11:32;0.40;;;0.30;;
1625;SDS011;806;48.770;9.156;2024-02-26T05:14:01;0.63;;;0.30;;
1625;SDS011;806;48.770;9.156;2024-02-26T05:16:28;0.50;;;0.30;;
1625;SDS011;806;48.770;9.156;2024-02-26T05:18:56;0.60;;;0.30;;
1625;SDS011;806;48.770;9.156;2024-02-26T05:21:23;0.60;;;0.30;;
1625;SDS011;806;48.770;9.156;2024-02-26T05:23:50;0.60;;;0.30;;
1625;SDS011;806;48.770;9.156;2024-02-26T05:26:19;0.60;;;0.30;;
1625;SDS011;806;48.770;9.156;2024-02-26T05:28:47;0.90;;;0.40;;
1625;SDS011;806;48.770;9.156;2024-02-26T05:31:16;0.77;;;0.40;;
1625;SDS011;806;48.770;9.156;2024-02-26T05:33:43;0.60;;;0.40;;
1625;SDS011;806;48.770;9.156;2024-02-26T05:36:12;1.40;;;0.40;;
1625;SDS011;806;48.770;9.156;2024-02-26T05:38:44;0.60;;;0.40;;
1625;SDS011;806;48.770;9.156;2024-02-26T05:41:12;0.60;;;0.40;;
1625;SDS011;806;48.770;9.156;2024-02-26T05:43:39;0.77;;;0.40;;
1625;SDS011;806;48.770;9.156;2024-02-26T05:46:05;0.70;;;0.40;;
1625;SDS011;806;48.770;9.156;2024-02-26T05:48:34;0.70;;;0.40;;
1625;SDS011;806;48.770;9.156;2024-02-26T05:51:00;0.80;;;0.40;;
1625;SDS011;806;48.770;9.156;2024-02-26T05:53:28;0.82;;;0.40;;
1625;SDS011;806;48.770;9.156;2024-02-26T05:55:55;0.70;;;0.40;;
1625;SDS011;806;48.770;9.156;2024-02-26T05:58:28;1.00;;;0.40;;
1625;SDS011;806;48.770;9.156;2024-02-26T06:00:54;0.70;;;0.40;;
1625;SDS011;806;48.770;9.156;2024-02-26T06:03:21;0.60;;;0.30;;
1625;SDS011;806;48.770;9.156;2024-02-26T06:05:50;0.77;;;0.40;;
1625;SDS011;806;48.770;9.156;2024-02-26T06:08:17;0.63;;;0.30;;
1625;SDS011;806;48.770;9.156;2024-02-26T06:10:43;0.77;;;0.40;;
1625;SDS011;806;48.770;9.156;2024-02-26T06:13:10;0.80;;;0.40;;
1625;SDS011;806;48.770;9.156;2024-02-26T06:15:37;1.00;;;0.50;;
1625;SDS011;806;48.770;9.156;2024-02-26T06:18:05;0.80;;;0.40;;
1625;SDS011;806;48.770;9.156;2024-02-26T06:20:31;0.82;;;0.45;;
1625;SDS011;806;48.770;9.156;2024-02-26T06:23:00;0.90;;;0.47;;
1625;SDS011;806;48.770;9.156;2024-02-26T06:25:27;1.10;;;0.60;;
1625;SDS011;806;48.770;9.156;2024-02-26T06:27:53;1.30;;;0.50;;
1625;SDS011;806;48.770;9.156;2024-02-26T06:30:20;1.40;;;0.60;;
1625;SDS011;806;48.770;9.156;2024-02-26T06:32:47;1.40;;;0.55;;
1625;SDS011;806;48.770;9.156;2024-02-26T06:35:14;1.05;;;0.50;;
1625;SDS011;806;48.770;9.156;2024-02-26T06:37:43;1.35;;;0.50;;
1625;SDS011;806;48.770;9.156;2024-02-26T06:40:12;1.05;;;0.50;;
1625;SDS011;806;48.770;9.156;2024-02-26T06:42:45;1.35;;;0.50;;
1625;SDS011;806;48.770;9.156;2024-02-26T06:45:13;1.20;;;0.60;;
1625;SDS011;806;48.770;9.156;2024-02-26T06:47:40;1.00;;;0.60;;
1625;SDS011;806;48.770;9.156;2024-02-26T06:50:08;1.50;;;0.50;;
1625;SDS011;806;48.770;9.156;2024-02-26T06:52:35;1.60;;;0.50;;
1625;SDS011;806;48.770;9.156;2024-02-26T06:55:02;0.80;;;0.50;;
1625;SDS011;806;48.770;9.156;2024-02-26T06:57:31;0.98;;;0.50;;
1625;SDS011;806;48.770;9.156;2024-02-26T06:59:58;0.90;;;0.50;;
1625;SDS011;806;48.770;9.156;2024-02-26T07:02:25;1.50;;;0.60;;
1625;SDS011;806;48.770;9.156;2024-02-26T07:04:52;1.27;;;0.60;;
1625;SDS011;806;48.770;9.156;2024-02-26T07:07:19;1.30;;;0.60;;
1625;SDS011;806;48.770;9.156;2024-02-26T07:09:47;0.88;;;0.50;;
1625;SDS011;806;48.770;9.156;2024-02-26T07:12:14;0.80;;;0.47;;
1625;SDS011;806;48.770;9.156;2024-02-26T07:14:43;0.75;;;0.40;;
1625;SDS011;806;48.770;9.156;2024-02-26T07:17:14;0.90;;;0.40;;
1625;SDS011;806;48.770;9.156;2024-02-26T07:19:41;1.88;;;0.45;;
1625;SDS011;806;48.770;9.156;2024-02-26T07:22:08;1.20;;;0.40;;
1625;SDS011;806;48.770;9.156;2024-02-26T07:24:35;0.90;;;0.50;;
1625;SDS011;806;48.770;9.156;2024-02-26T07:27:03;0.80;;;0.50;;
1625;SDS011;806;48.770;9.156;2024-02-26T07:29:30;0.70;;;0.40;;
1625;SDS011;806;48.770;9.156;2024-02-26T07:32:00;1.15;;;0.40;;
1625;SDS011;806;48.770;9.156;2024-02-26T07:34:27;1.00;;;0.32;;
1625;SDS011;806;48.770;9.156;2024-02-26T07:36:55;0.63;;;0.40;;
1625;SDS011;806;48.770;9.156;2024-02-26T07:39:22;1.67;;;0.40;;
1625;SDS011;806;48.770;9.156;2024-02-26T07:41:48;0.93;;;0.40;;
1625;SDS011;806;48.770;9.156;2024-02-26T07:44:17;0.60;;;0.40;;
1625;SDS011;806;48.770;9.156;2024-02-26T07:46:44;0.60;;;0.40;;
1625;SDS011;806;48.770;9.156;2024-02-26T07:49:13;0.80;;;0.50;;
1625;SDS011;806;48.770;9.156;2024-02-26T07:51:41;0.70;;;0.40;;
1625;SDS011;806;48.770;9.156;2024-02-26T07:54:07;0.90;;;0.50;;
1625;SDS011;806;48.770;9.156;2024-02-26T07:56:34;0.80;;;0.50;;
1625;SDS011;806;48.770;9.156;2024-02-26T07:59:01;0.80;;;0.50;;
1625;SDS011;806;48.770;9.156;2024-02-26T08:01:28;0.80;;;0.50;;
1625;SDS011;806;48.770;9.156;2024-02-26T08:03:55;2.20;;;0.50;;
1625;SDS011;806;48.770;9.156;2024-02-26T08:06:24;0.90;;;0.50;;
1625;SDS011;806;48.770;9.156;2024-02-26T08:08:52;0.90;;;0.50;;
1625;SDS011;806;48.770;9.156;2024-02-26T08:11:19;1.90;;;0.60;;
1625;SDS011;806;48.770;9.156;2024-02-26T08:13:46;0.90;;;0.50;;
1625;SDS011;806;48.770;9.156;2024-02-26T08:16:13;2.80;;;0.50;;
1625;SDS011;806;48.770;9.156;2024-02-26T08:18:39;1.10;;;0.63;;
1625;SDS011;806;48.770;9.156;2024-02-26T08:21:08;2.80;;;0.50;;
1625;SDS011;806;48.770;9.156;2024-02-26T08:23:37;0.93;;;0.60;;
1625;SDS011;806;48.770;9.156;2024-02-26T08:26:05;1.30;;;0.60;;
1625;SDS011;806;48.770;9.156;2024-02-26T08:28:36;1.40;;;0.70;;
1625;SDS011;806;48.770;9.156;2024-02-26T08:31:03;1.50;;;0.70;;
1625;SDS011;806;48.770;9.156;2024-02-26T08:33:30;1.20;;;0.50;;
1625;SDS011;806;48.770;9.156;2024-02-26T08:35:59;1.10;;;0.50;;
1625;SDS011;806;48.770;9.156;2024-02-26T08:38:25;0.90;;;0.40;;
1625;SDS011;806;48.770;9.156;2024-02-26T08:40:54;0.80;;;0.40;;
1625;SDS011;806;48.770;9.156;2024-02-26T08:43:21;0.98;;;0.40;;
1625;SDS011;806;48.770;9.156;2024-02-26T08:45:51;0.80;;;0.50;;
1625;SDS011;806;48.770;9.156;2024-02-26T08:48:18;0.70;;;0.40;;
1625;SDS011;806;48.770;9.156;2024-02-26T08:50:46;0.70;;;0.40;;
1625;SDS011;806;48.770;9.156;2024-02-26T08:53:13;1.20;;;0.40;;
1625;SDS011;806;48.770;9.156;2024-02-26T08:55:40;0.80;;;0.43;;
1625;SDS011;806;48.770;9.156;2024-02-26T08:58:08;1.00;;;0.45;;
1625;SDS011;806;48.770;9.156;2024-02-26T09:00:35;0.80;;;0.40;;
1625;SDS011;806;48.770;9.156;2024-02-26T09:03:02;0.80;;;0.50;;
1625;SDS011;806;48.770;9.156;2024-02-26T09:05:30;0.80;;;0.50;;
1625;SDS011;806;48.770;9.156;2024-02-26T09:07:57;1.17;;;0.40;;
1625;SDS011;806;48.770;9.156;2024-02-26T09:10:24;0.80;;;0.40;;
1625;SDS011;806;48.770;9.156;2024-02-26T09:12:51;0.70;;;0.40;;
1625;SDS011;806;48.770;9.156;2024-02-26T09:15:19;1.23;;;0.40;;
1625;SDS011;806;48.770;9.156;2024-02-26T09:17:46;0.73;;;0.30;;
1625;SDS011;806;48.770;9.156;2024-02-26T09:20:15;1.10;;;0.40;;
1625;SDS011;806;48.770;9.156;2024-02-26T09:22:45;0.68;;;0.40;;
1625;SDS011;806;48.770;9.156;2024-02-26T09:25:11;0.90;;;0.40;;
1625;SDS011;806;48.770;9.156;2024-02-26T09:27:40;0.70;;;0.40;;
1625;SDS011;806;48.770;9.156;2024-02-26T09:30:07;1.52;;;0.40;;
1625;SDS011;806;48.770;9.156;2024-02-26T09:32:36;1.08;;;0.50;;
1625;SDS011;806;48.770;9.156;2024-02-26T09:35:04;1.00;;;0.55;;
1625;SDS011;806;48.770;9.156;2024-02-26T09:37:32;1.50;;;0.60;;
1625;SDS011;806;48.770;9.156;2024-02-26T09:40:01;1.70;;;0.50;;
1625;SDS011;806;48.770;9.156;2024-02-26T09:42:29;1.00;;;0.50;;
1625;SDS011;806;48.770;9.156;2024-02-26T09:44:57;0.90;;;0.57;;
1625;SDS011;806;48.770;9.156;2024-02-26T09:47:28;1.20;;;0.60;;
1625;SDS011;806;48.770;9.156;2024-02-26T09:49:59;0.95;;;0.60;;
1625;SDS011;806;48.770;9.156;2024-02-26T09:52:29;1.90;;;0.80;;
1625;SDS011;806;48.770;9.156;2024-02-26T09:54:59;1.25;;;0.60;;
1625;SDS011;806;48.770;9.156;2024-02-26T09:57:27;1.00;;;0.60;;
1625;SDS011;806;48.770;9.156;2024-02-26T09:59:58;1.20;;;0.70;;
1625;SDS011;806;48.770;9.156;2024-02-26T10:02:28;1.35;;;0.60;;
1625;SDS011;806;48.770;9.156;2024-02-26T10:05:03;2.70;;;0.80;;
1625;SDS011;806;48.770;9.156;2024-02-26T10:07:33;1.00;;;0.70;;
1625;SDS011;806;48.770;9.156;2024-02-26T10:10:01;3.80;;;0.80;;
1625;SDS011;806;48.770;9.156;2024-02-26T10:12:29;1.20;;;0.70;;
1625;SDS011;806;48.770;9.156;2024-02-26T10:14:57;1.30;;;0.80;;
1625;SDS011;806;48.770;9.156;2024-02-26T10:17:24;2.40;;;0.70;;
1625;SDS011;806;48.770;9.156;2024-02-26T10:19:53;1.40;;;0.60;;
1625;SDS011;806;48.770;9.156;2024-02-26T10:22:23;2.30;;;0.80;;
1625;SDS011;806;48.770;9.156;2024-02-26T10:24:49;2.30;;;0.70;;
1625;SDS011;806;48.770;9.156;2024-02-26T10:27:16;1.20;;;0.70;;
1625;SDS011;806;48.770;9.156;2024-02-26T10:29:44;3.17;;;0.70;;
1625;SDS011;806;48.770;9.156;2024-02-26T10:32:12;1.10;;;0.70;;
1625;SDS011;806;48.770;9.156;2024-02-26T10:34:39;1.53;;;0.70;;
1625;SDS011;806;48.770;9.156;2024-02-26T10:37:07;1.20;;;0.70;;
1625;SDS011;806;48.770;9.156;2024-02-26T10:39:37;2.20;;;0.60;;
1625;SDS011;806;48.770;9.156;2024-02-26T10:42:04;1.17;;;0.63;;
1625;SDS011;806;48.770;9.156;2024-02-26T10:44:43;0.90;;;0.60;;
1625;SDS011;806;48.770;9.156;2024-02-26T10:47:10;3.80;;;0.70;;
1625;SDS011;806;48.770;9.156;2024-02-26T10:49:37;1.80;;;0.60;;
1625;SDS011;806;48.770;9.156;2024-02-26T10:52:04;1.30;;;0.60;;
1625;SDS011;806;48.770;9.156;2024-02-26T10:54:33;1.10;;;0.60;;
1625;SDS011;806;48.770;9.156;2024-02-26T10:57:09;1.30;;;0.50;;
1625;SDS011;806;48.770;9.156;2024-02-26T10:59:36;1.20;;;0.60;;
1625;SDS011;806;48.770;9.156;2024-02-26T11:02:04;1.10;;;0.60;;
1625;SDS011;806;48.770;9.156;2024-02-26T11:04:31;1.60;;;0.50;;
1625;SDS011;806;48.770;9.156;2024-02-26T11:07:03;0.80;;;0.50;;
1625;SDS011;806;48.770;9.156;2024-02-26T11:09:32;0.82;;;0.50;;
1625;SDS011;806;48.770;9.156;2024-02-26T11:12:00;1.05;;;0.50;;
1625;SDS011;806;48.770;9.156;2024-02-26T11:14:32;0.98;;;0.60;;
1625;SDS011;806;48.770;9.156;2024-02-26T11:17:00;1.60;;;0.70;;
1625;SDS011;806;48.770;9.156;2024-02-26T11:19:28;2.30;;;0.60;;
1625;SDS011;806;48.770;9.156;2024-02-26T11:21:59;1.00;;;0.60;;
1625;SDS011;806;48.770;9.156;2024-02-26T11:24:26;1.20;;;0.60;;
1625;SDS011;806;48.770;9.156;2024-02-26T11:26:56;1.10;;;0.60;;
1625;SDS011;806;48.770;9.156;2024-02-26T11:29:32;3.20;;;0.70;;
1625;SDS011;806;48.770;9.156;2024-02-26T11:32:04;1.17;;;0.50;;
1625;SDS011;806;48.770;9.156;2024-02-26T11:34:32;0.80;;;0.50;;
1625;SDS011;806;48.770;9.156;2024-02-26T11:37:08;1.38;;;0.60;;
1625;SDS011;806;48.770;9.156;2024-02-26T11:39:36;1.75;;;0.70;;
1625;SDS011;806;48.770;9.156;2024-02-26T11:42:06;1.02;;;0.60;;
1625;SDS011;806;48.770;9.156;2024-02-26T11:44:37;1.50;;;0.65;;
1625;SDS011;806;48.770;9.156;2024-02-26T11:47:11;1.60;;;0.70;;
1625;SDS011;806;48.770;9.156;2024-02-26T11:49:38;1.00;;;0.60;;
1625;SDS011;806;48.770;9.156;2024-02-26T11:52:06;1.10;;;0.60;;
1625;SDS011;806;48.770;9.156;2024-02-26T11:54:38;1.40;;;0.60;;
1625;SDS011;806;48.770;9.156;2024-02-26T11:57:21;1.55;;;0.65;;
1625;SDS011;806;48.770;9.156;2024-02-26T11:59:49;1.70;;;0.60;;
1625;SDS011;806;48.770;9.156;2024-02-26T12:05:12;1.38;;;0.60;;
1625;SDS011;806;48.770;9.156;2024-02-26T12:07:42;0.90;;;0.60;;
1625;SDS011;806;48.770;9.156;2024-02-26T12:10:23;0.90;;;0.60;;
1625;SDS011;806;48.770;9.156;2024-02-26T12:12:54;1.00;;;0.50;;
1625;SDS011;806;48.770;9.156;2024-02-26T12:15:31;1.10;;;0.60;;
1625;SDS011;806;48.770;9.156;2024-02-26T12:18:00;1.08;;;0.50;;
1625;SDS011;806;48.770;9.156;2024-02-26T12:20:28;1.23;;;0.50;;
1625;SDS011;806;48.770;9.156;2024-02-26T12:22:55;1.13;;;0.60;;
1625;SDS011;806;48.770;9.156;2024-02-26T12:25:23;1.55;;;0.52;;
1625;SDS011;806;48.770;9.156;2024-02-26T12:27:51;1.02;;;0.50;;
1625;SDS011;806;48.770;9.156;2024-02-26T12:30:18;1.30;;;0.43;;
1625;SDS011;806;48.770;9.156;2024-02-26T12:32:47;0.80;;;0.50;;
1625;SDS011;806;48.770;9.156;2024-02-26T12:35:14;1.20;;;0.50;;
1625;SDS011;806;48.770;9.156;2024-02-26T12:37:42;0.93;;;0.50;;
1625;SDS011;806;48.770;9.156;2024-02-26T12:40:09;1.20;;;0.50;;
1625;SDS011;806;48.770;9.156;2024-02-26T12:42:37;2.17;;;1.08;;
1625;SDS011;806;48.770;9.156;2024-02-26T12:45:06;0.90;;;0.50;;
1625;SDS011;806;48.770;9.156;2024-02-26T12:47:35;1.45;;;0.55;;
1625;SDS011;806;48.770;9.156;2024-02-26T12:50:05;1.60;;;0.50;;
1625;SDS011;806;48.770;9.156;2024-02-26T12:52:35;1.23;;;0.50;;
1625;SDS011;806;48.770;9.156;2024-02-26T12:55:05;0.90;;;0.40;;
1625;SDS011;806;48.770;9.156;2024-02-26T12:57:36;2.60;;;0.50;;
1625;SDS011;806;48.770;9.156;2024-02-26T13:00:05;0.70;;;0.50;;
1625;SDS011;806;48.770;9.156;2024-02-26T13:02:34;1.00;;;0.50;;
1625;SDS011;806;48.770;9.156;2024-02-26T13:05:02;1.60;;;0.60;;
1625;SDS011;806;48.770;9.156;2024-02-26T13:07:33;1.55;;;0.50;;
1625;SDS011;806;48.770;9.156;2024-02-26T13:10:00;1.20;;;0.50;;
1625;SDS011;806;48.770;9.156;2024-02-26T13:12:27;0.70;;;0.40;;
1625;SDS011;806;48.770;9.156;2024-02-26T13:15:00;0.63;;;0.40;;
1625;SDS011;806;48.770;9.156;2024-02-26T13:17:27;0.85;;;0.50;;
1625;SDS011;806;48.770;9.156;2024-02-26T13:19:57;1.60;;;0.40;;
1625;SDS011;806;48.770;9.156;2024-02-26T13:22:25;0.80;;;0.50;;
1625;SDS011;806;48.770;9.156;2024-02-26T13:24:55;1.05;;;0.40;;
1625;SDS011;806;48.770;9.156;2024-02-26T13:27:23;1.40;;;0.50;;
1625;SDS011;806;48.770;9.156;2024-02-26T13:30:01;0.80;;;0.40;;
1625;SDS011;806;48.770;9.156;2024-02-26T13:32:35;1.00;;;0.40;;
1625;SDS011;806;48.770;9.156;2024-02-26T13:35:06;0.57;;;0.30;;
1625;SDS011;806;48.770;9.156;2024-02-26T13:37:35;0.60;;;0.30;;
1625;SDS011;806;48.770;9.156;2024-02-26T13:40:06;1.20;;;0.50;;
1625;SDS011;806;48.770;9.156;2024-02-26T13:42:34;0.98;;;0.32;;
1625;SDS011;806;48.770;9.156;2024-02-26T13:45:02;0.95;;;0.32;;
1625;SDS011;806;48.770;9.156;2024-02-26T13:47:34;0.60;;;0.30;;
1625;SDS011;806;48.770;9.156;2024-02-26T13:50:04;0.65;;;0.30;;
1625;SDS011;806;48.770;9.156;2024-02-26T13:52:31;0.90;;;0.30;;
1625;SDS011;806;48.770;9.156;2024-02-26T13:55:00;0.52;;;0.30;;
1625;SDS011;806;48.770;9.156;2024-02-26T13:57:32;0.60;;;0.20;;
1625;SDS011;806;48.770;9.156;2024-02-26T13:59:59;0.50;;;0.20;;
1625;SDS011;806;48.770;9.156;2024-02-26T14:02:26;0.52;;;0.30;;
1625;SDS011;806;48.770;9.156;2024-02-26T14:04:53;0.40;;;0.20;;
1625;SDS011;806;48.770;9.156;2024-02-26T14:07:20;0.50;;;0.30;;
1625;SDS011;806;48.770;9.156;2024-02-26T14:09:47;0.80;;;0.30;;
1625;SDS011;806;48.770;9.156;2024-02-26T14:12:16;0.60;;;0.30;;
1625;SDS011;806;48.770;9.156;2024-02-26T14:14:43;0.50;;;0.30;;
1625;SDS011;806;48.770;9.156;2024-02-26T14:17:13;0.70;;;0.40;;
1625;SDS011;806;48.770;9.156;2024-02-26T14:19:41;0.60;;;0.30;;
1625;SDS011;806;48.770;9.156;2024-02-26T14:22:10;0.50;;;0.20;;
1625;SDS011;806;48.770;9.156;2024-02-26T14:24:37;0.50;;;0.30;;
1625;SDS011;806;48.770;9.156;2024-02-26T14:27:04;0.80;;;0.20;;
1625;SDS011;806;48.770;9.156;2024-02-26T14:29:33;0.60;;;0.20;;
1625;SDS011;806;48.770;9.156;2024-02-26T14:32:00;1.17;;;0.30;;
1625;SDS011;806;48.770;9.156;2024-02-26T14:34:27;0.50;;;0.20;;
1625;SDS011;806;48.770;9.156;2024-02-26T14:36:54;0.40;;;0.20;;
1625;SDS011;806;48.770;9.156;2024-02-26T14:39:21;0.60;;;0.30;;
1625;SDS011;806;48.770;9.156;2024-02-26T14:41:51;1.55;;;0.20;;
1625;SDS011;806;48.770;9.156;2024-02-26T14:44:18;0.60;;;0.20;;
1625;SDS011;806;48.770;9.156;2024-02-26T14:46:46;0.60;;;0.20;;
1625;SDS011;806;48.770;9.156;2024-02-26T14:49:13;0.88;;;0.20;;
1625;SDS011;806;48.770;9.156;2024-02-26T14:51:40;0.60;;;0.20;;
1625;SDS011;806;48.770;9.156;2024-02-26T14:54:09;1.10;;;0.20;;
1625;SDS011;806;48.770;9.156;2024-02-26T14:56:37;0.80;;;0.30;;
1625;SDS011;806;48.770;9.156;2024-02-26T14:59:03;1.10;;;0.20;;
1625;SDS011;806;48.770;9.156;2024-02-26T15:01:31;0.70;;;0.30;;
1625;SDS011;806;48.770;9.156;2024-02-26T15:03:59;0.60;;;0.20;;
1625;SDS011;806;48.770;9.156;2024-02-26T15:06:26;0.50;;;0.30;;
1625;SDS011;806;48.770;9.156;2024-02-26T15:08:53;0.40;;;0.20;;
1625;SDS011;806;48.770;9.156;2024-02-26T15:11:21;0.50;;;0.20;;
1625;SDS011;806;48.770;9.156;2024-02-26T15:13:48;0.50;;;0.20;;
1625;SDS011;806;48.770;9.156;2024-02-26T15:16:18;0.50;;;0.20;;
1625;SDS011;806;48.770;9.156;2024-02-26T15:18:45;0.50;;;0.20;;
1625;SDS011;806;48.770;9.156;2024-02-26T15:21:14;0.50;;;0.30;;
1625;SDS011;806;48.770;9.156;2024-02-26T15:23:42;0.50;;;0.20;;
1625;SDS011;806;48.770;9.156;2024-02-26T15:26:10;0.63;;;0.30;;
1625;SDS011;806;48.770;9.156;2024-02-26T15:28:37;0.60;;;0.30;;
1625;SDS011;806;48.770;9.156;2024-02-26T15:31:04;1.00;;;0.30;;
1625;SDS011;806;48.770;9.156;2024-02-26T15:33:30;0.50;;;0.20;;
1625;SDS011;806;48.770;9.156;2024-02-26T15:35:57;0.60;;;0.30;;
1625;SDS011;806;48.770;9.156;2024-02-26T15:38:26;0.50;;;0.30;;